Time;durP1;ratioP1;P1;durP2;ratioP2;P2;SDS_P1;SDS_P2;PMS_P1;PMS_P2;Temp;Humidity;BMP_temperature;BMP_pressure;BME280_temperature;BME280_humidity;BME280_pressure;Samples;Min_cycle;Max_cycle;Signal;HPM_P1;HPM_P2
2023/12/23 00:03:26;;;;;;;2.20;0.70;;;;;;;9.73;100.00;99019.47;12219136;19;20010;-83
2023/12/23 00:07:28;;;;;;;3.63;0.77;;;;;;;9.71;100.00;99025.22;12209619;19;20007;-82
2023/12/23 00:11:29;;;;;;;0.50;0.50;;;;;;;9.74;100.00;99023.88;12186113;19;20014;-82
2023/12/23 00:15:31;;;;;;;1.30;0.80;;;;;;;9.78;100.00;99027.72;12207438;19;20017;-83
2023/12/23 00:19:33;;;;;;;5.15;1.33;;;;;;;9.82;100.00;99028.88;12214278;19;20014;-82
2023/12/23 00:23:35;;;;;;;1.90;0.63;;;;;;;9.82;100.00;99116.94;12188183;19;20010;-82
2023/12/23 00:27:37;;;;;;;1.55;0.43;;;;;;;8.98;100.00;99134.72;12203852;19;20013;-82
2023/12/23 00:31:38;;;;;;;1.15;0.40;;;;;;;7.74;100.00;99153.19;12203543;19;20649;-82
2023/12/23 00:35:41;;;;;;;4.35;0.40;;;;;;;7.22;100.00;99150.56;12179519;19;20433;-80
2023/12/23 00:39:43;;;;;;;0.95;0.30;;;;;;;7.03;100.00;99171.00;12199928;19;20085;-79
2023/12/23 00:43:45;;;;;;;0.30;0.20;;;;;;;6.90;100.00;99188.56;12197762;19;20002;-80
2023/12/23 00:47:46;;;;;;;1.98;0.30;;;;;;;6.83;100.00;99188.66;12175421;19;20030;-80
2023/12/23 00:51:48;;;;;;;0.38;0.22;;;;;;;6.78;100.00;99196.78;12196434;19;20019;-80
2023/12/23 00:55:50;;;;;;;0.40;0.30;;;;;;;6.78;100.00;99206.88;12195492;19;20022;-79
2023/12/23 00:59:54;;;;;;;0.47;0.30;;;;;;;6.77;100.00;99197.84;12175981;19;20003;-79
2023/12/23 01:03:58;;;;;;;0.30;0.30;;;;;;;6.72;100.00;99166.78;12195856;19;20006;-79
2023/12/23 01:07:59;;;;;;;0.80;0.40;;;;;;;6.72;100.00;99197.75;12193000;19;20031;-81
2023/12/23 01:12:01;;;;;;;0.80;0.32;;;;;;;6.72;100.00;99200.50;12173360;19;20392;-81
2023/12/23 01:16:04;;;;;;;1.27;0.50;;;;;;;6.74;100.00;99213.91;12193964;19;20007;-81
2023/12/23 01:20:06;;;;;;;11.87;7.60;;;;;;;6.76;100.00;99209.06;12194419;19;20066;-81
2023/12/23 01:24:08;;;;;;;12.13;9.20;;;;;;;6.80;100.00;99210.22;12173811;19;20007;-81
2023/12/23 01:28:10;;;;;;;4.85;2.53;;;;;;;6.83;100.00;99202.34;12202772;19;20003;-82
2023/12/23 01:32:11;;;;;;;0.40;0.40;;;;;;;6.88;100.00;99196.16;12207993;19;20009;-82
2023/12/23 01:36:15;;;;;;;0.10;0.10;;;;;;;6.89;100.00;99188.78;12182448;19;20618;-82
2023/12/23 01:40:17;;;;;;;0.10;0.10;;;;;;;6.91;100.00;99192.13;12207816;19;20403;-82
2023/12/23 01:44:18;;;;;;;0.10;0.10;;;;;;;6.91;100.00;99192.13;12198729;19;21292;-82
2023/12/23 01:48:22;;;;;;;0.38;0.32;;;;;;;6.92;100.00;99188.28;12182420;19;20027;-82
2023/12/23 01:52:25;;;;;;;1.13;1.08;;;;;;;6.93;100.00;99189.94;12205882;19;20018;-83
2023/12/23 01:56:26;;;;;;;0.10;0.10;;;;;;;6.95;100.00;99180.44;12182945;19;20376;-83
2023/12/23 02:00:28;;;;;;;0.10;0.10;;;;;;;7.03;100.00;99179.22;12192451;19;20023;-83
2023/12/23 02:04:30;;;;;;;0.15;0.15;;;;;;;7.10;100.00;99187.31;12202098;19;20013;-82
2023/12/23 02:08:32;;;;;;;0.10;0.10;;;;;;;7.13;100.00;99179.44;12179443;19;20023;-82
2023/12/23 02:12:47;;;;;;;0.10;0.10;;;;;;;7.16;100.00;99184.41;12207074;19;20074;-82
2023/12/23 02:16:51;;;;;;;0.10;0.10;;;;;;;7.18;100.00;99182.28;12206801;19;20588;-82
2023/12/23 02:20:53;;;;;;;0.10;0.10;;;;;;;7.21;100.00;99183.69;12185103;19;20010;-82
2023/12/23 02:24:55;;;;;;;0.10;0.10;;;;;;;7.24;100.00;99186.78;12206065;19;19998;-83
2023/12/23 02:29:01;;;;;;;0.10;0.10;;;;;;;7.28;100.00;99184.38;12205247;19;20408;-83
2023/12/23 02:33:04;;;;;;;0.10;0.10;;;;;;;7.35;100.00;99171.38;12192111;19;20070;-83
2023/12/23 02:37:06;;;;;;;0.20;0.20;;;;;;;7.42;100.00;99182.19;12215793;19;20596;-83
2023/12/23 02:41:08;;;;;;;0.50;0.50;;;;;;;7.40;100.00;99195.31;12215561;19;20014;-82
2023/12/23 02:45:10;;;;;;;0.47;0.47;;;;;;;7.37;100.00;99207.59;12196219;19;20014;-87
2023/12/23 02:49:12;;;;;;;0.10;0.10;;;;;;;7.35;100.00;99198.78;12226941;19;20025;-82
2023/12/23 02:53:13;;;;;;;0.32;0.32;;;;;;;7.40;100.00;99207.09;12224306;19;20011;-81
2023/12/23 02:57:15;;;;;;;0.10;0.10;;;;;;;7.37;100.00;99215.81;12197194;19;20027;-82
2023/12/23 03:01:20;;;;;;;0.10;0.10;;;;;;;7.36;100.00;99211.41;12213820;19;20373;-82
2023/12/23 03:05:22;;;;;;;0.10;0.10;;;;;;;7.39;100.00;99193.66;12209576;19;20017;-82
2023/12/23 03:09:25;;;;;;;0.13;0.13;;;;;;;7.43;100.00;99195.63;12178547;19;20018;-83
2023/12/23 03:13:27;;;;;;;0.28;0.28;;;;;;;7.47;100.00;99201.50;12205085;19;20033;-83
2023/12/23 03:17:29;;;;;;;0.40;0.40;;;;;;;7.46;100.00;99188.84;12203727;19;20007;-84
2023/12/23 03:21:31;;;;;;;0.10;0.10;;;;;;;7.47;100.00;99182.31;12186077;19;20007;-83
2023/12/23 03:25:34;;;;;;;;;;;;;;;7.50;100.00;99187.28;12202539;19;20023;-83
2023/12/23 03:29:36;;;;;;;0.10;0.10;;;;;;;7.48;100.00;99179.31;12203997;19;19947;-83
2023/12/23 03:33:40;;;;;;;0.10;0.10;;;;;;;7.51;100.00;99169.75;12183148;19;20014;-82
2023/12/23 03:37:41;;;;;;;0.10;0.10;;;;;;;7.53;100.00;99164.88;12200878;19;20681;-83
2023/12/23 03:41:43;;;;;;;0.10;0.10;;;;;;;7.58;100.00;99164.13;12197680;19;20014;-81
2023/12/23 03:45:46;;;;;;;;;;;;;;;7.60;100.00;99160.06;12199338;19;20018;-81
2023/12/23 03:49:48;;;;;;;0.10;0.10;;;;;;;7.64;100.00;99153.00;12197945;19;20339;-83
2023/12/23 03:53:51;;;;;;;;;;;;;;;7.66;100.00;99150.84;12177132;19;20006;-84
2023/12/23 03:57:53;;;;;;;0.20;0.20;;;;;;;7.68;100.00;99153.34;12198799;19;20266;-84
2023/12/23 04:01:56;;;;;;;0.10;0.10;;;;;;;7.69;100.00;99153.09;12200823;19;20010;-83
2023/12/23 04:05:58;;;;;;;0.10;0.10;;;;;;;7.74;100.00;99147.69;12174703;19;20039;-82
2023/12/23 04:10:00;;;;;;;0.10;0.10;;;;;;;7.75;100.00;99143.88;12195399;19;20462;-82
2023/12/23 04:14:02;;;;;;;0.10;0.10;;;;;;;7.82;100.00;99143.69;12198287;19;20010;-81
2023/12/23 04:18:04;;;;;;;0.10;0.10;;;;;;;7.84;100.00;99135.25;12175827;19;20040;-82
2023/12/23 04:22:06;;;;;;;0.17;0.17;;;;;;;7.88;100.00;99128.16;12200227;19;20064;-82
2023/12/23 04:26:10;;;;;;;0.10;0.10;;;;;;;7.88;100.00;99137.25;12195952;19;20006;-82
2023/12/23 04:30:12;;;;;;;1.55;1.25;;;;;;;7.91;100.00;99142.25;12176959;19;20062;-83
2023/12/23 04:34:14;;;;;;;0.10;0.10;;;;;;;7.96;100.00;99133.25;12195220;19;20010;-81
2023/12/23 04:38:17;;;;;;;0.30;0.30;;;;;;;7.99;100.00;99130.81;12198081;19;20014;-85
2023/12/23 04:42:19;;;;;;;0.10;0.10;;;;;;;8.02;100.00;99128.66;12175634;19;20010;-84
2023/12/23 04:46:21;;;;;;;0.10;0.10;;;;;;;8.07;100.00;99146.06;12198324;19;20011;-83
2023/12/23 04:50:23;;;;;;;0.10;0.10;;;;;;;8.01;100.00;99141.56;12198071;19;20018;-83
2023/12/23 04:54:25;;;;;;;0.10;0.10;;;;;;;8.06;100.00;99149.03;12176117;19;20369;-84
2023/12/23 04:58:27;;;;;;;0.10;0.10;;;;;;;8.07;100.00;99142.47;12199393;19;20027;-85
2023/12/23 05:02:29;;;;;;;0.45;0.45;;;;;;;8.09;100.00;99129.31;12207763;19;20018;-86
2023/12/23 05:06:31;;;;;;;0.10;0.10;;;;;;;8.07;100.00;99123.28;12186842;19;20014;-85
2023/12/23 05:10:33;;;;;;;0.10;0.10;;;;;;;8.11;100.00;99125.25;12210513;19;20725;-84
2023/12/23 05:14:35;;;;;;;0.13;0.13;;;;;;;8.11;100.00;99118.94;12207469;19;20027;-86
2023/12/23 05:18:37;;;;;;;0.20;0.20;;;;;;;8.13;100.00;99122.28;12191266;19;20007;-85
2023/12/23 05:22:39;;;;;;;0.20;0.20;;;;;;;8.15;100.00;99109.97;12211215;19;20003;-84
2023/12/23 05:26:41;;;;;;;0.10;0.10;;;;;;;8.17;100.00;99112.44;12208289;19;20271;-83
2023/12/23 05:30:43;;;;;;;0.10;0.10;;;;;;;8.17;100.00;99091.31;12186292;19;20034;-83
2023/12/23 05:34:45;;;;;;;0.17;0.17;;;;;;;8.16;100.00;99100.63;12208637;19;20019;-84
2023/12/23 05:38:47;;;;;;;0.10;0.10;;;;;;;8.22;100.00;99099.63;12187564;19;20034;-86
2023/12/23 05:42:49;;;;;;;0.10;0.10;;;;;;;8.21;100.00;99099.91;12211742;19;20003;-86
2023/12/23 05:46:51;;;;;;;0.10;0.10;;;;;;;8.22;100.00;99091.41;12213456;19;20035;-85
2023/12/23 05:50:53;;;;;;;0.10;0.10;;;;;;;8.27;100.00;99087.91;12188839;19;20117;-85
2023/12/23 05:54:56;;;;;;;0.10;0.10;;;;;;;8.26;100.00;99077.16;12209241;19;20011;-86
2023/12/23 05:58:57;;;;;;;0.25;0.25;;;;;;;8.19;100.00;99089.16;12211712;19;20017;-84
2023/12/23 06:02:59;;;;;;;0.10;0.10;;;;;;;8.20;100.00;99090.81;12188633;19;20035;-85
2023/12/23 06:07:01;;;;;;;0.17;0.17;;;;;;;8.22;100.00;99088.66;12212028;19;20367;-83
2023/12/23 06:11:03;;;;;;;0.98;0.65;;;;;;;8.22;100.00;99080.41;12218370;19;20007;-84
2023/12/23 06:15:07;;;;;;;5.45;0.63;;;;;;;8.30;100.00;99089.28;12232173;19;20025;-83
2023/12/23 06:19:09;;;;;;;0.20;0.20;;;;;;;8.28;100.00;99088.72;12262101;19;20023;-84
2023/12/23 06:23:12;;;;;;;0.10;0.10;;;;;;;8.33;100.00;99073.19;12257423;19;20022;-84
2023/12/23 06:27:14;;;;;;;0.65;0.65;;;;;;;8.33;100.00;99070.44;12215193;19;20485;-86
2023/12/23 06:31:15;;;;;;;0.10;0.10;;;;;;;8.35;100.00;99076.47;12265520;19;21380;-84
2023/12/23 06:35:18;;;;;;;0.10;0.10;;;;;;;8.38;100.00;99064.16;12269972;19;19999;-86
2023/12/23 06:39:20;;;;;;;0.10;0.10;;;;;;;8.35;100.00;99064.66;12232591;19;20011;-85
2023/12/23 06:43:22;;;;;;;0.10;0.10;;;;;;;8.40;100.00;99067.53;12208692;19;20015;-85
2023/12/23 06:47:43;;;;;;;0.10;0.10;;;;;;;8.47;100.00;99073.66;12206062;19;20109;-85
2023/12/23 06:51:45;;;;;;;0.10;0.10;;;;;;;8.47;100.00;99059.91;12208217;19;20078;-85
2023/12/23 06:55:47;;;;;;;0.17;0.17;;;;;;;8.51;100.00;99063.84;12208351;19;20019;-83
2023/12/23 06:59:49;;;;;;;1.88;1.65;;;;;;;8.50;100.00;99073.13;12182199;19;20783;-85
2023/12/23 07:03:51;;;;;;;1.60;0.55;;;;;;;8.52;100.00;99067.41;12209215;19;20014;-84
2023/12/23 07:07:52;;;;;;;0.10;0.10;;;;;;;8.50;100.00;99089.63;12203229;19;20039;-84
2023/12/23 07:11:54;;;;;;;0.20;0.20;;;;;;;8.47;100.00;99087.38;12183420;19;20058;-83
2023/12/23 07:15:57;;;;;;;0.10;0.10;;;;;;;8.50;100.00;99099.78;12202631;19;20015;-84
2023/12/23 07:19:58;;;;;;;0.20;0.20;;;;;;;8.51;100.00;99082.22;12206541;19;20019;-84
2023/12/23 07:24:00;;;;;;;0.10;0.10;;;;;;;8.49;100.00;99076.97;12176929;19;20010;-81
2023/12/23 07:28:02;;;;;;;0.20;0.20;;;;;;;8.50;100.00;99088.78;12194455;19;20031;-83
2023/12/23 07:32:05;;;;;;;7.17;0.73;;;;;;;8.45;100.00;99100.53;12198264;19;20010;-83
2023/12/23 07:36:07;;;;;;;0.10;0.10;;;;;;;8.48;100.00;99097.28;12175453;19;20014;-84
2023/12/23 07:40:09;;;;;;;0.30;0.30;;;;;;;8.47;100.00;99109.34;12203022;19;20053;-82
2023/12/23 07:44:11;;;;;;;0.55;0.40;;;;;;;8.41;100.00;99113.09;12193935;19;21393;-83
2023/12/23 07:48:13;;;;;;;0.17;0.17;;;;;;;8.41;100.00;99122.16;12175937;19;20010;-84
2023/12/23 07:52:15;;;;;;;0.10;0.10;;;;;;;8.44;100.00;99137.31;12196053;19;20002;-80
2023/12/23 07:56:17;;;;;;;0.10;0.10;;;;;;;8.39;100.00;99107.88;12195611;19;20014;-83
2023/12/23 08:00:20;;;;;;;0.47;0.47;;;;;;;8.34;100.00;99115.19;12173256;19;20011;-82
2023/12/23 08:04:22;;;;;;;0.10;0.10;;;;;;;8.29;100.00;99121.41;12198152;19;20026;-83
2023/12/23 08:08:23;;;;;;;0.10;0.10;;;;;;;8.31;100.00;99134.91;12196393;19;20002;-83
2023/12/23 08:12:25;;;;;;;0.10;0.10;;;;;;;8.40;100.00;99136.16;12176249;19;20247;-83
2023/12/23 08:16:27;;;;;;;0.10;0.10;;;;;;;8.40;100.00;99133.41;12193496;19;20015;-84
2023/12/23 08:20:29;;;;;;;0.10;0.10;;;;;;;8.42;100.00;99136.75;12196511;19;20023;-83
2023/12/23 08:24:31;;;;;;;0.43;0.43;;;;;;;8.41;100.00;99137.81;12177160;19;20017;-83
2023/12/23 08:28:32;;;;;;;0.10;0.10;;;;;;;8.48;100.00;99141.22;12197375;19;20010;-85
2023/12/23 08:32:35;;;;;;;0.10;0.10;;;;;;;8.52;100.00;99123.16;12201985;19;20010;-86
2023/12/23 08:36:37;;;;;;;0.10;0.10;;;;;;;8.53;100.00;99116.56;12176479;19;20070;-83
2023/12/23 08:40:39;;;;;;;3.28;0.90;;;;;;;8.59;100.00;99132.03;12199537;19;20015;-84
2023/12/23 08:44:41;;;;;;;0.10;0.10;;;;;;;8.61;100.00;99140.84;12200106;19;20015;-81
2023/12/23 08:48:42;;;;;;;0.10;0.10;;;;;;;8.65;100.00;99131.00;12183957;19;20014;-80
2023/12/23 08:52:44;;;;;;;0.10;0.10;;;;;;;8.70;100.00;99132.19;12198973;19;20011;-83
2023/12/23 08:56:46;;;;;;;0.10;0.10;;;;;;;8.73;100.00;99128.94;12179097;19;20007;-82
2023/12/23 09:00:48;;;;;;;0.10;0.10;;;;;;;8.70;100.00;99127.50;12202960;19;20074;-81
2023/12/23 09:04:49;;;;;;;0.10;0.10;;;;;;;8.73;100.00;99137.16;12203753;19;20007;-82
2023/12/23 09:08:54;;;;;;;0.10;0.10;;;;;;;8.77;100.00;99163.03;12180078;19;20753;-81
2023/12/23 09:12:56;;;;;;;0.10;0.10;;;;;;;8.76;100.00;99148.47;12201880;19;20032;-81
2023/12/23 09:16:58;;;;;;;0.10;0.10;;;;;;;8.80;100.00;99146.03;12199198;19;20720;-79
2023/12/23 09:20:59;;;;;;;0.10;0.10;;;;;;;8.77;100.00;99130.06;12179713;19;20003;-84
2023/12/23 09:25:02;;;;;;;0.10;0.10;;;;;;;8.87;100.00;99122.81;12193454;19;20023;-82
2023/12/23 09:29:04;;;;;;;0.10;0.10;;;;;;;8.90;100.00;99126.97;12212195;19;20011;-81
2023/12/23 09:33:06;;;;;;;0.10;0.10;;;;;;;8.78;100.00;99131.75;12187621;19;20030;-80
2023/12/23 09:37:08;;;;;;;0.10;0.10;;;;;;;8.85;100.00;99140.63;12210087;19;20009;-80
2023/12/23 09:41:10;;;;;;;0.10;0.10;;;;;;;8.88;100.00;99142.84;12210439;19;20002;-82
2023/12/23 09:45:16;;;;;;;0.10;0.10;;;;;;;8.91;100.00;99156.09;12180863;19;20424;-82
2023/12/23 09:49:18;;;;;;;0.10;0.10;;;;;;;9.00;100.00;99143.56;12217676;19;20023;-83
2023/12/23 09:53:21;;;;;;;0.10;0.10;;;;;;;8.99;100.00;99141.91;12218263;19;20077;-82
2023/12/23 09:57:26;;;;;;;0.15;0.15;;;;;;;9.05;100.00;99140.06;12228322;19;20011;-83
2023/12/23 10:01:28;;;;;;;0.10;0.10;;;;;;;8.99;100.00;99135.59;12222365;19;20023;-82
2023/12/23 10:05:30;;;;;;;0.30;0.30;;;;;;;9.01;100.00;99134.25;12215477;19;20006;-81
2023/12/23 10:09:33;;;;;;;0.20;0.20;;;;;;;9.08;100.00;99150.53;12196048;19;20023;-81
2023/12/23 10:13:35;;;;;;;;;;;;;;;9.11;100.00;99152.78;12212298;19;20027;-84
2023/12/23 10:17:37;;;;;;;0.10;0.10;;;;;;;9.15;100.00;99167.66;12207103;19;19923;-80
2023/12/23 10:21:41;;;;;;;0.10;0.10;;;;;;;9.15;100.00;99161.31;12185138;19;20376;-80
2023/12/23 10:25:44;;;;;;;0.10;0.10;;;;;;;9.21;100.00;99146.56;12204326;19;20014;-81
2023/12/23 10:29:52;;;;;;;0.10;0.10;;;;;;;9.24;100.00;99154.28;12181330;19;20010;-80
2023/12/23 10:33:58;;;;;;;0.10;0.10;;;;;;;9.30;100.00;99148.59;12200849;19;20026;-80
2023/12/23 10:38:02;;;;;;;0.10;0.10;;;;;;;9.36;100.00;99136.56;12204469;19;20006;-79
2023/12/23 10:42:06;;;;;;;0.10;0.10;;;;;;;9.48;100.00;99130.91;12179785;19;20043;-80
2023/12/23 10:46:08;;;;;;;0.10;0.10;;;;;;;9.55;100.00;99139.78;12202922;19;20014;-79
2023/12/23 10:50:12;;;;;;;1.00;0.63;;;;;;;9.75;100.00;99128.13;12204574;19;20138;-80
2023/12/23 10:54:14;;;;;;;0.20;0.20;;;;;;;9.88;100.00;99124.13;12182006;19;20130;-80
2023/12/23 10:58:18;;;;;;;0.73;0.73;;;;;;;9.91;100.00;99159.41;12220319;19;20410;-79
2023/12/23 11:02:28;;;;;;;0.10;0.10;;;;;;;9.63;100.00;99156.91;12227081;19;20478;-81
2023/12/23 11:06:39;;;;;;;0.20;0.20;;;;;;;9.46;100.00;99162.50;12186955;19;20002;-80
2023/12/23 11:10:42;;;;;;;0.10;0.10;;;;;;;9.32;100.00;99168.41;12202927;19;20059;-83
2023/12/23 11:14:44;;;;;;;;;;;;;;;9.17;100.00;99186.66;12198160;19;20003;-81
2023/12/23 11:18:46;;;;;;;0.10;0.10;;;;;;;9.11;100.00;99177.50;12203108;19;19918;-81
2023/12/23 11:22:47;;;;;;;0.10;0.10;;;;;;;9.10;100.00;99171.19;12201265;19;20023;-81
2023/12/23 11:26:53;;;;;;;0.10;0.10;;;;;;;9.08;100.00;99172.53;12189770;19;20017;-81
2023/12/23 11:30:57;;;;;;;0.10;0.10;;;;;;;9.04;100.00;99161.22;12205868;19;20014;-80
2023/12/23 11:35:00;;;;;;;0.10;0.10;;;;;;;9.06;100.00;99164.53;12204141;19;20359;-81
2023/12/23 11:39:02;;;;;;;0.10;0.10;;;;;;;9.16;100.00;99162.97;12182305;19;20636;-80
2023/12/23 11:43:04;;;;;;;0.10;0.10;;;;;;;9.24;100.00;99170.78;12198172;19;20018;-79
2023/12/23 11:47:08;;;;;;;0.10;0.10;;;;;;;9.23;100.00;99180.94;12202881;19;20112;-81
2023/12/23 11:51:10;;;;;;;0.10;0.10;;;;;;;9.26;100.00;99168.63;12178754;19;20030;-81
2023/12/23 11:55:12;;;;;;;0.22;0.22;;;;;;;9.38;100.00;99162.97;12208098;19;20100;-79
2023/12/23 11:59:14;;;;;;;0.10;0.10;;;;;;;9.43;100.00;99154.75;12199407;19;20026;-80
2023/12/23 12:03:16;;;;;;;0.10;0.10;;;;;;;9.47;100.00;99156.75;12180079;19;20002;-79
2023/12/23 12:07:20;;;;;;;0.10;0.10;;;;;;;9.50;100.00;99152.66;12200388;19;20478;-81
2023/12/23 12:11:24;;;;;;;0.10;0.10;;;;;;;9.45;100.00;99150.66;12197180;19;20006;-81
2023/12/23 12:15:26;;;;;;;0.10;0.10;;;;;;;9.41;100.00;99149.53;12178230;19;20140;-81
2023/12/23 12:19:28;;;;;;;0.68;0.28;;;;;;;9.49;100.00;99160.09;12198818;19;20010;-81
2023/12/23 12:23:30;;;;;;;0.10;0.10;;;;;;;9.45;100.00;99152.59;12198711;19;20580;-79
2023/12/23 12:27:32;;;;;;;0.10;0.10;;;;;;;9.47;100.00;99148.50;12175231;19;20728;-81
2023/12/23 12:31:34;;;;;;;0.10;0.10;;;;;;;9.43;100.00;99146.50;12198994;19;20017;-78
2023/12/23 12:35:36;;;;;;;0.10;0.10;;;;;;;9.49;100.00;99137.25;12193656;19;20037;-81
2023/12/23 12:39:38;;;;;;;0.10;0.10;;;;;;;9.51;100.00;99135.88;12178217;19;20003;-80
2023/12/23 12:43:40;;;;;;;0.10;0.10;;;;;;;9.58;100.00;99133.78;12199249;19;20864;-79
2023/12/23 12:47:42;;;;;;;0.10;0.10;;;;;;;9.68;100.00;99132.22;12199912;19;20010;-80
2023/12/23 12:51:44;;;;;;;0.10;0.10;;;;;;;9.69;100.00;99137.44;12175804;19;20023;-78
2023/12/23 12:55:46;;;;;;;6.33;1.30;;;;;;;9.79;100.00;99128.47;12197145;19;20007;-80
2023/12/23 12:59:51;;;;;;;0.10;0.10;;;;;;;9.86;100.00;99140.06;12171546;19;20025;-78
2023/12/23 13:03:52;;;;;;;0.10;0.10;;;;;;;9.93;100.00;99135.16;12199277;19;20038;-78
2023/12/23 13:07:55;;;;;;;0.20;0.20;;;;;;;9.82;100.00;99139.78;12196077;19;20018;-78
2023/12/23 13:11:57;;;;;;;0.10;0.10;;;;;;;9.89;100.00;99123.03;12174982;19;20006;-79
2023/12/23 13:15:58;;;;;;;0.10;0.10;;;;;;;9.90;100.00;99127.44;12194180;19;20010;-81
2023/12/23 13:20:00;;;;;;;0.10;0.10;;;;;;;9.88;100.00;99115.88;12237246;19;20078;-81
2023/12/23 13:24:02;;;;;;;0.10;0.10;;;;;;;9.96;100.00;99123.63;12195161;19;20030;-78
2023/12/23 13:28:04;;;;;;;0.10;0.10;;;;;;;10.04;100.00;99147.94;12210682;19;20122;-81
2023/12/23 13:32:07;;;;;;;0.10;0.10;;;;;;;10.19;100.00;99138.16;12208940;19;20022;-82
2023/12/23 13:36:09;;;;;;;;;;;;;;;10.27;100.00;99138.50;12186932;19;20426;-82
2023/12/23 13:40:11;;;;;;;0.10;0.10;;;;;;;10.29;100.00;99153.94;12209806;19;19918;-80
2023/12/23 13:44:13;;;;;;;0.10;0.10;;;;;;;10.24;100.00;99149.19;12206786;19;20557;-81
2023/12/23 13:48:15;;;;;;;2.47;0.60;;;;;;;10.32;100.00;99153.41;12187829;19;20003;-80
2023/12/23 13:52:18;;;;;;;0.40;0.40;;;;;;;10.33;100.00;99172.44;12206871;19;20107;-79
2023/12/23 13:56:20;;;;;;;2.83;0.30;;;;;;;10.36;100.00;99182.91;12224399;19;20007;-78
2023/12/23 14:00:22;;;;;;;1.65;0.30;;;;;;;10.44;100.00;99179.69;12223670;19;20003;-78
2023/12/23 14:04:23;;;;;;;2.60;0.60;;;;;;;10.47;100.00;99183.84;12246899;19;20022;-79
2023/12/23 14:08:25;;;;;;;2.50;0.38;;;;;;;10.48;100.00;99194.56;12243970;19;20021;-79
2023/12/23 14:12:28;;;;;;;2.10;0.52;;;;;;;10.48;100.00;99183.56;12207515;19;20056;-83
2023/12/23 14:16:30;;;;;;;0.50;0.50;;;;;;;10.40;100.00;99199.75;12232442;19;20062;-82
2023/12/23 14:20:32;;;;;;;4.33;0.50;;;;;;;10.40;100.00;99200.56;12234640;19;20010;-82
2023/12/23 14:24:35;;;;;;;2.15;0.55;;;;;;;10.39;100.00;99214.63;12199730;19;20286;-79
2023/12/23 14:28:37;;;;;;;1.42;0.50;;;;;;;10.32;100.00;99217.59;12228007;19;20014;-82
2023/12/23 14:32:40;;;;;;;2.00;0.52;;;;;;;10.27;100.00;99209.28;12226333;19;20038;-83
2023/12/23 14:36:48;;;;;;;1.42;0.55;;;;;;;10.45;100.00;99247.44;12201383;19;20608;-81
2023/12/23 14:40:51;;;;;;;2.97;0.50;;;;;;;10.54;100.00;99233.19;12213127;19;20398;-81
2023/12/23 14:44:53;;;;;;;1.25;0.63;;;;;;;10.61;100.00;99228.28;12186584;19;20815;-81
2023/12/23 14:48:55;;;;;;;2.17;1.33;;;;;;;10.66;100.00;99231.91;12212962;19;20630;-84
2023/12/23 14:52:57;;;;;;;1.43;0.70;;;;;;;10.67;100.00;99238.22;12212023;19;20017;-80
2023/12/23 14:56:59;;;;;;;2.83;0.77;;;;;;;10.60;100.00;99246.72;12195969;19;20021;-82
2023/12/23 15:01:00;;;;;;;3.17;1.00;;;;;;;10.56;100.00;99258.53;12214062;19;20010;-77
2023/12/23 15:05:03;;;;;;;7.53;1.42;;;;;;;10.42;100.00;99270.00;12209114;19;20035;-79
2023/12/23 15:09:05;;;;;;;2.30;0.90;;;;;;;10.36;100.00;99281.25;12185496;19;20011;-79
2023/12/23 15:13:07;;;;;;;1.65;0.73;;;;;;;10.25;100.00;99280.28;12211746;19;20020;-79
2023/12/23 15:17:10;;;;;;;4.90;1.20;;;;;;;10.12;100.00;99288.97;12213816;19;20003;-79
2023/12/23 15:21:12;;;;;;;3.97;0.90;;;;;;;10.01;100.00;99294.34;12191792;19;20010;-80
2023/12/23 15:25:16;;;;;;;4.78;0.70;;;;;;;9.95;100.00;99306.38;12221228;19;20006;-78
2023/12/23 15:29:18;;;;;;;2.30;0.80;;;;;;;9.93;100.00;99304.97;12248117;19;20015;-80
2023/12/23 15:33:20;;;;;;;1.73;1.17;;;;;;;9.87;100.00;99309.59;12224157;19;20010;-80
2023/12/23 15:37:22;;;;;;;2.95;0.77;;;;;;;9.81;100.00;99313.38;12241437;19;20054;-80
2023/12/23 15:41:24;;;;;;;3.35;1.60;;;;;;;9.74;100.00;99321.81;12210630;19;20003;-79
2023/12/23 15:45:26;;;;;;;3.28;0.93;;;;;;;9.69;100.00;99331.94;12177585;19;20069;-80
2023/12/23 15:49:27;;;;;;;2.40;0.80;;;;;;;9.51;100.00;99325.66;12198701;19;20378;-81
2023/12/23 15:53:29;;;;;;;2.40;0.68;;;;;;;9.54;100.00;99333.41;12203945;19;20489;-79
2023/12/23 15:57:31;;;;;;;1.97;0.60;;;;;;;9.52;100.00;99338.34;12185070;19;20110;-79
2023/12/23 16:01:33;;;;;;;2.55;1.35;;;;;;;9.49;100.00;99340.78;12202660;19;20006;-78
2023/12/23 16:05:35;;;;;;;2.83;0.95;;;;;;;9.48;100.00;99341.84;12207466;19;20050;-78
2023/12/23 16:09:38;;;;;;;;;;;;;;;9.44;100.00;99338.78;12181477;19;20642;-79
2023/12/23 16:13:40;;;;;;;4.05;1.48;;;;;;;9.46;100.00;99339.34;12195563;19;19914;-78
2023/12/23 16:17:42;;;;;;;2.40;1.10;;;;;;;9.45;100.00;99337.69;12199406;19;20023;-80
2023/12/23 16:21:44;;;;;;;13.77;1.55;;;;;;;9.51;100.00;99349.56;12178582;19;20032;-80
2023/12/23 16:25:46;;;;;;;3.17;1.88;;;;;;;9.61;100.00;99354.38;12198988;19;19999;-80
2023/12/23 16:29:48;;;;;;;1.83;0.70;;;;;;;9.69;100.00;99365.78;12181560;19;20014;-79
2023/12/23 16:33:49;;;;;;;3.10;0.88;;;;;;;9.76;100.00;99365.63;12201733;19;20018;-80
2023/12/23 16:37:51;;;;;;;1.40;0.70;;;;;;;9.79;100.00;99367.84;12204193;19;20006;-78
2023/12/23 16:41:53;;;;;;;2.78;0.98;;;;;;;9.86;100.00;99368.47;12202083;19;20041;-81
2023/12/23 16:45:55;;;;;;;13.55;1.33;;;;;;;9.90;100.00;99374.28;12202711;19;20027;-80
2023/12/23 16:49:57;;;;;;;2.72;1.27;;;;;;;9.79;100.00;99376.09;12202089;19;20017;-78
2023/12/23 16:54:01;;;;;;;2.78;1.30;;;;;;;9.62;100.00;99364.31;12179754;19;20407;-82
2023/12/23 16:58:03;;;;;;;5.40;1.40;;;;;;;9.49;100.00;99376.53;12210801;19;20006;-78
2023/12/23 17:02:05;;;;;;;1.33;0.77;;;;;;;9.36;100.00;99383.19;12211769;19;20006;-78
2023/12/23 17:06:07;;;;;;;3.35;1.00;;;;;;;9.32;100.00;99390.28;12191442;19;20545;-80
2023/12/23 17:10:09;;;;;;;3.47;1.02;;;;;;;9.23;100.00;99394.56;12215830;19;20014;-81
2023/12/23 17:14:11;;;;;;;4.28;1.23;;;;;;;9.13;100.00;99384.22;12211544;19;20481;-79
2023/12/23 17:18:13;;;;;;;5.32;1.67;;;;;;;9.04;100.00;99386.56;12197215;19;20006;-79
2023/12/23 17:22:15;;;;;;;3.38;1.63;;;;;;;9.09;100.00;99392.13;12215498;19;20013;-79
2023/12/23 17:26:17;;;;;;;2.92;1.00;;;;;;;9.07;100.00;99387.97;12208681;19;20003;-81
2023/12/23 17:30:18;;;;;;;8.50;1.90;;;;;;;9.07;100.00;99385.22;12187341;19;20367;-80
2023/12/23 17:34:20;;;;;;;5.55;2.15;;;;;;;9.08;100.00;99378.66;12211205;19;20010;-79
2023/12/23 17:38:22;;;;;;;4.10;1.90;;;;;;;9.08;100.00;99375.91;12208024;19;20477;-83
2023/12/23 17:42:24;;;;;;;4.50;1.83;;;;;;;9.09;100.00;99380.31;12189216;19;20054;-81
2023/12/23 17:46:27;;;;;;;2.45;1.58;;;;;;;9.11;100.00;99387.22;12213206;19;20006;-79
2023/12/23 17:50:29;;;;;;;4.32;1.63;;;;;;;9.11;100.00;99380.91;12208684;19;20016;-79
2023/12/23 17:54:31;;;;;;;2.95;1.40;;;;;;;9.19;100.00;99394.22;12184668;19;20092;-79
2023/12/23 17:58:33;;;;;;;4.95;1.05;;;;;;;9.24;100.00;99401.72;12205868;19;20014;-81
2023/12/23 18:02:34;;;;;;;1.33;0.80;;;;;;;9.24;100.00;99401.72;12208850;19;20006;-78
2023/12/23 18:06:36;;;;;;;1.40;0.80;;;;;;;9.31;100.00;99407.84;12184064;19;20036;-79
2023/12/23 18:10:38;;;;;;;2.58;1.10;;;;;;;9.34;100.00;99408.22;12204908;19;20505;-78
2023/12/23 18:14:40;;;;;;;1.80;0.70;;;;;;;9.39;100.00;99406.59;12208347;19;20011;-77
2023/12/23 18:18:42;;;;;;;4.88;0.90;;;;;;;9.43;100.00;99400.38;12186405;19;20011;-79
2023/12/23 18:22:44;;;;;;;3.38;0.80;;;;;;;9.45;100.00;99402.84;12203266;19;20025;-79
2023/12/23 18:26:46;;;;;;;2.80;0.88;;;;;;;9.45;100.00;99405.59;12186041;19;20014;-78
2023/12/23 18:30:48;;;;;;;1.15;0.90;;;;;;;9.44;100.00;99402.03;12208850;19;20399;-80
2023/12/23 18:34:49;;;;;;;3.10;0.90;;;;;;;9.46;100.00;99397.13;12207150;19;20014;-79
2023/12/23 18:38:59;;;;;;;2.35;0.98;;;;;;;9.51;100.00;99413.66;12188668;19;20007;-80
2023/12/23 18:43:15;;;;;;;0.93;0.70;;;;;;;9.50;100.00;99403.75;12202671;19;20521;-83
2023/12/23 18:47:17;;;;;;;1.15;0.60;;;;;;;9.44;100.00;99401.19;12209255;19;20010;-79
2023/12/23 18:51:19;;;;;;;1.13;0.60;;;;;;;9.45;100.00;99425.69;12182918;19;20075;-79